Time;durP1;ratioP1;P1;durP2;ratioP2;P2;SDS_P1;SDS_P2;PMS_P1;PMS_P2;Temp;Humidity;BMP_temperature;BMP_pressure;BME280_temperature;BME280_humidity;BME280_pressure;Samples;Min_cycle;Max_cycle;Signal;HPM_P1;HPM_P2
2021/12/13 00:02:20;;;;;;;19.45;10.13;;;1.60;99.90;;;;;;5031129;28;20044;-71
2021/12/13 00:05:37;;;;;;;20.75;11.63;;;1.60;99.90;;;;;;5033035;28;20045;-71
2021/12/13 00:08:47;;;;;;;26.90;15.55;;;1.50;99.90;;;;;;5032104;28;20040;-70
2021/12/13 00:11:55;;;;;;;33.85;17.35;;;1.50;99.90;;;;;;5030020;28;20057;-70
2021/12/13 00:15:03;;;;;;;29.73;15.75;;;1.40;99.90;;;;;;5031790;28;20041;-71
2021/12/13 00:18:13;;;;;;;30.58;17.40;;;1.40;99.90;;;;;;5032487;28;20056;-71
2021/12/13 00:21:23;;;;;;;37.38;18.83;;;1.30;99.90;;;;;;5031092;28;20037;-71
2021/12/13 00:24:34;;;;;;;33.50;19.17;;;1.20;99.90;;;;;;5029645;28;20048;-71
2021/12/13 00:27:43;;;;;;;38.13;19.00;;;1.10;99.90;;;;;;5028855;28;20645;-71
2021/12/13 00:31:19;;;;;;;32.60;18.60;;;1.00;99.90;;;;;;5029685;28;20044;-71
2021/12/13 00:34:44;;;;;;;30.27;16.85;;;1.00;99.90;;;;;;5025559;28;20388;-71
2021/12/13 00:37:51;;;;;;;19.75;11.57;;;1.00;99.90;;;;;;5029657;28;20049;-71
2021/12/13 00:41:05;;;;;;;20.30;12.20;;;0.90;99.90;;;;;;5030828;28;20048;-71
2021/12/13 00:44:22;;;;;;;23.67;12.98;;;0.90;99.90;;;;;;5032179;28;20045;-71
2021/12/13 00:47:29;;;;;;;24.35;12.02;;;0.90;99.90;;;;;;5026235;28;20048;-71
2021/12/13 00:50:52;;;;;;;16.05;9.65;;;1.00;99.90;;;;;;5030637;28;20737;-71
2021/12/13 00:54:00;;;;;;;18.60;11.43;;;1.00;99.90;;;;;;5030815;28;20047;-71
2021/12/13 00:57:22;;;;;;;21.90;12.68;;;1.10;99.90;;;;;;5031080;28;20048;-71
2021/12/13 01:00:33;;;;;;;26.50;13.27;;;1.00;99.90;;;;;;5031046;28;20121;-71
2021/12/13 01:03:43;;;;;;;24.38;12.63;;;1.00;99.90;;;;;;5028089;28;20036;-71
2021/12/13 01:07:25;;;;;;;24.13;11.70;;;1.00;99.90;;;;;;5030470;28;20044;-71
2021/12/13 01:10:56;;;;;;;22.27;12.45;;;0.90;99.90;;;;;;5027692;28;20044;-71
2021/12/13 01:14:24;;;;;;;22.73;13.10;;;0.90;99.90;;;;;;5030179;28;20060;-71
2021/12/13 01:17:53;;;;;;;16.33;10.48;;;0.90;99.90;;;;;;5027718;28;20053;-71
2021/12/13 01:21:15;;;;;;;13.55;8.93;;;1.00;99.90;;;;;;5030013;28;20060;-71
2021/12/13 01:24:41;;;;;;;;;;;1.00;99.90;;;;;;5031270;28;20045;-71
2021/12/13 01:27:59;;;;;;;17.38;10.50;;;1.10;99.90;;;;;;5027510;28;19920;-71
2021/12/13 01:31:10;;;;;;;22.70;12.45;;;1.10;99.90;;;;;;5030498;28;20060;-71
2021/12/13 01:34:16;;;;;;;52.53;27.90;;;1.10;99.90;;;;;;5031756;28;20530;-71
2021/12/13 01:37:20;;;;;;;21.50;12.38;;;1.10;99.90;;;;;;5026927;28;20044;-71
2021/12/13 01:40:30;;;;;;;21.20;11.77;;;1.00;99.90;;;;;;5028802;28;20721;-71
2021/12/13 01:43:41;;;;;;;23.75;12.30;;;0.90;99.90;;;;;;5028051;28;20052;-71
2021/12/13 01:46:53;;;;;;;24.55;13.50;;;0.70;99.90;;;;;;5030329;28;20504;-71
2021/12/13 01:50:15;;;;;;;24.65;14.13;;;0.70;99.90;;;;;;5029807;28;20044;-71
2021/12/13 01:53:52;;;;;;;19.83;11.63;;;0.70;99.90;;;;;;5030916;28;20044;-71
2021/12/13 02:00:32;;;;;;;18.70;11.80;;;0.90;99.90;;;;;;5029162;28;20044;-71
2021/12/13 02:03:57;;;;;;;21.42;11.48;;;0.90;99.90;;;;;;5027504;28;20491;-71
2021/12/13 02:07:03;;;;;;;17.15;10.57;;;1.00;99.90;;;;;;5029765;28;20636;-71
2021/12/13 02:10:14;;;;;;;18.50;12.32;;;1.00;99.90;;;;;;5030098;28;20088;-71
2021/12/13 02:13:25;;;;;;;22.98;12.50;;;0.90;99.90;;;;;;5030095;28;20045;-71
2021/12/13 02:16:57;;;;;;;17.52;10.45;;;0.80;99.90;;;;;;5024565;28;20044;-71
2021/12/13 02:20:05;;;;;;;;;;;0.70;99.90;;;;;;5030147;28;20039;-71
2021/12/13 02:23:10;;;;;;;20.58;11.55;;;0.80;99.90;;;;;;5022036;28;19917;-71
2021/12/13 02:26:14;;;;;;;22.13;11.85;;;0.70;99.90;;;;;;5022255;28;20040;-71
2021/12/13 02:29:35;;;;;;;27.17;13.43;;;0.40;99.90;;;;;;5026968;28;20045;-71
2021/12/13 02:32:42;;;;;;;23.77;13.45;;;0.20;99.90;;;;;;5027598;28;20045;-71
2021/12/13 02:35:58;;;;;;;41.92;22.15;;;0.00;99.90;;;;;;5027764;28;20472;-71
2021/12/13 02:39:11;;;;;;;75.13;37.08;;;0.00;99.90;;;;;;5029116;28;20056;-71
2021/12/13 02:42:18;;;;;;;25.13;14.38;;;-0.10;99.90;;;;;;5023763;28;20040;-71
2021/12/13 02:45:32;;;;;;;21.95;13.25;;;-0.10;99.90;;;;;;5030010;28;20060;-71
2021/12/13 02:48:47;;;;;;;39.70;20.42;;;-0.10;99.90;;;;;;5024974;28;20052;-71
2021/12/13 02:51:57;;;;;;;49.45;25.02;;;0.00;99.90;;;;;;5027635;28;20040;-71
2021/12/13 02:55:07;;;;;;;53.88;25.88;;;0.10;99.90;;;;;;5029625;28;20053;-71
2021/12/13 02:58:16;;;;;;;75.60;32.83;;;0.20;99.90;;;;;;5027318;28;20487;-71
2021/12/13 03:01:27;;;;;;;152.80;59.47;;;0.30;99.90;;;;;;5025875;28;20412;-71
2021/12/13 03:04:32;;;;;;;39.58;22.13;;;0.40;99.90;;;;;;5025082;28;20476;-71
2021/12/13 03:07:45;;;;;;;26.98;15.57;;;0.60;99.90;;;;;;5027470;28;20052;-71
2021/12/13 03:10:54;;;;;;;30.52;15.63;;;0.50;99.90;;;;;;5026543;28;20052;-71
2021/12/13 03:14:15;;;;;;;40.03;22.83;;;0.40;99.90;;;;;;5027683;28;20044;-71
2021/12/13 03:17:54;;;;;;;25.67;14.60;;;0.50;99.90;;;;;;5023573;28;20060;-71
2021/12/13 03:21:16;;;;;;;23.27;13.32;;;0.40;99.90;;;;;;5028481;28;20523;-71
2021/12/13 03:24:36;;;;;;;24.98;14.07;;;0.60;99.90;;;;;;5033142;28;20048;-71
2021/12/13 03:27:47;;;;;;;24.33;13.25;;;0.60;99.90;;;;;;5026364;28;20060;-71
2021/12/13 03:31:09;;;;;;;23.08;13.25;;;0.70;99.90;;;;;;5027767;28;20380;-71
2021/12/13 03:34:15;;;;;;;41.03;20.83;;;0.80;99.90;;;;;;5030376;28;20041;-71
2021/12/13 03:37:23;;;;;;;66.05;32.42;;;0.90;99.90;;;;;;5030763;28;20040;-71
2021/12/13 03:40:29;;;;;;;28.10;15.98;;;0.90;99.90;;;;;;5029006;28;20483;-71
2021/12/13 03:43:38;;;;;;;86.93;38.78;;;1.00;99.90;;;;;;5032107;28;20045;-71
2021/12/13 03:46:45;;;;;;;149.95;66.93;;;1.10;99.90;;;;;;5033052;28;20048;-71
2021/12/13 03:49:58;;;;;;;56.67;26.55;;;1.20;99.90;;;;;;5030565;28;20491;-71
2021/12/13 03:53:09;;;;;;;30.77;16.52;;;1.20;99.90;;;;;;5033023;28;20063;-71
2021/12/13 03:56:17;;;;;;;30.65;16.58;;;1.30;99.90;;;;;;5031784;28;20056;-71
2021/12/13 03:59:27;;;;;;;33.15;17.55;;;1.30;99.90;;;;;;5028942;28;20060;-71
2021/12/13 04:02:37;;;;;;;25.30;14.80;;;1.30;99.90;;;;;;5028413;28;20045;-71
2021/12/13 04:05:43;;;;;;;18.98;11.10;;;1.30;99.90;;;;;;5029274;28;20041;-71
2021/12/13 04:08:57;;;;;;;17.92;10.75;;;1.30;99.90;;;;;;5029247;28;20048;-71
2021/12/13 04:12:06;;;;;;;18.40;11.15;;;1.30;99.90;;;;;;5033151;28;20060;-71
2021/12/13 04:15:34;;;;;;;20.17;11.02;;;1.10;99.90;;;;;;5030225;28;20039;-71
2021/12/13 04:19:06;;;;;;;21.73;12.63;;;1.00;99.90;;;;;;5029172;28;20045;-71
2021/12/13 04:22:11;;;;;;;22.80;13.43;;;0.80;99.90;;;;;;5032019;28;20471;-71
2021/12/13 04:25:21;;;;;;;17.88;11.13;;;0.80;99.90;;;;;;5029020;28;20048;-71
2021/12/13 04:28:34;;;;;;;20.40;12.43;;;0.70;99.90;;;;;;5030877;28;20048;-71
2021/12/13 04:31:38;;;;;;;23.88;12.55;;;0.70;99.90;;;;;;5027814;28;20045;-71
2021/12/13 04:34:43;;;;;;;22.08;12.90;;;0.60;99.90;;;;;;5028631;28;20381;-71
2021/12/13 04:37:52;;;;;;;29.75;12.73;;;0.60;99.90;;;;;;5029889;28;20062;-71
2021/12/13 04:40:56;;;;;;;22.40;12.57;;;0.60;99.90;;;;;;5030836;28;20391;-71
2021/12/13 04:44:12;;;;;;;20.17;12.73;;;0.60;99.90;;;;;;5031851;28;20045;-71
2021/12/13 04:47:29;;;;;;;24.00;13.65;;;0.50;99.90;;;;;;5026957;28;20045;-71
2021/12/13 04:50:41;;;;;;;23.88;13.23;;;0.60;99.90;;;;;;5028070;28;20056;-71
2021/12/13 04:53:47;;;;;;;24.10;13.75;;;0.50;99.90;;;;;;5028400;28;20057;-71
2021/12/13 04:56:56;;;;;;;24.88;12.95;;;0.50;99.90;;;;;;5030031;28;20044;-70
2021/12/13 05:00:07;;;;;;;22.70;12.82;;;0.50;99.90;;;;;;5031019;28;20048;-70
2021/12/13 05:03:15;;;;;;;21.35;12.48;;;0.60;99.90;;;;;;5026154;28;20357;-73
2021/12/13 05:06:26;;;;;;;19.60;12.45;;;0.60;99.90;;;;;;5030014;28;20064;-70
2021/12/13 05:09:31;;;;;;;20.80;12.57;;;0.80;99.90;;;;;;5028320;28;20385;-73
2021/12/13 05:12:35;;;;;;;20.77;12.80;;;0.90;99.90;;;;;;5029711;28;20048;-73
2021/12/13 05:15:42;;;;;;;20.20;12.02;;;0.90;99.90;;;;;;5027311;28;20044;-71
2021/12/13 05:18:51;;;;;;;23.50;12.38;;;1.00;99.90;;;;;;5030089;28;20400;-73
2021/12/13 05:21:57;;;;;;;20.20;11.45;;;1.00;99.90;;;;;;5031588;28;20766;-73
2021/12/13 05:25:03;;;;;;;24.70;14.20;;;0.90;99.90;;;;;;5030694;28;20049;-71
2021/12/13 05:28:26;;;;;;;22.55;14.35;;;0.90;99.90;;;;;;5031586;28;20052;-72
2021/12/13 05:31:31;;;;;;;23.98;15.25;;;0.90;99.90;;;;;;5024733;28;20487;-72
2021/12/13 05:35:02;;;;;;;20.42;11.93;;;0.80;99.90;;;;;;5026470;28;20048;-72
2021/12/13 05:38:11;;;;;;;18.70;11.23;;;0.70;99.90;;;;;;5030007;28;20044;-72
2021/12/13 05:41:23;;;;;;;17.90;11.13;;;0.70;99.90;;;;;;5031665;28;20490;-72
2021/12/13 05:44:32;;;;;;;21.50;12.50;;;0.80;99.90;;;;;;5028700;28;20387;-72
2021/12/13 05:47:36;;;;;;;19.25;12.18;;;0.80;99.90;;;;;;5028657;28;20060;-72
2021/12/13 05:51:07;;;;;;;24.33;12.57;;;0.80;99.90;;;;;;5027530;28;20040;-72
2021/12/13 05:54:20;;;;;;;17.65;11.13;;;0.80;99.90;;;;;;5032239;28;20487;-72
2021/12/13 05:57:40;;;;;;;17.30;10.30;;;0.80;99.90;;;;;;5029816;28;20065;-73
2021/12/13 06:00:52;;;;;;;17.85;11.48;;;0.70;99.90;;;;;;5026783;28;20032;-72
2021/12/13 06:04:16;;;;;;;21.10;11.98;;;0.80;99.90;;;;;;5031200;28;20048;-73
2021/12/13 06:07:28;;;;;;;20.65;12.52;;;0.80;99.90;;;;;;5031006;28;20060;-73
2021/12/13 06:10:48;;;;;;;25.63;13.17;;;0.70;99.90;;;;;;5025956;28;20069;-72
2021/12/13 06:13:56;;;;;;;22.23;12.65;;;0.60;99.90;;;;;;5028680;28;20299;-73
2021/12/13 06:17:28;;;;;;;19.63;12.73;;;0.50;99.90;;;;;;5030915;28;20086;-73
2021/12/13 06:20:38;;;;;;;24.55;13.43;;;0.40;99.90;;;;;;5030196;28;20044;-73
2021/12/13 06:23:46;;;;;;;22.00;13.10;;;0.30;99.90;;;;;;5027666;28;20029;-73
2021/12/13 06:27:05;;;;;;;24.02;15.07;;;0.10;99.90;;;;;;5027811;28;20040;-73
2021/12/13 06:30:18;;;;;;;25.05;15.63;;;0.10;99.90;;;;;;5024414;28;20048;-73
2021/12/13 06:33:24;;;;;;;26.42;13.60;;;0.00;99.90;;;;;;5029172;28;20056;-72
2021/12/13 06:36:30;;;;;;;25.90;14.23;;;-0.10;99.90;;;;;;5029314;28;20044;-73
2021/12/13 06:39:33;;;;;;;21.90;13.23;;;-0.50;99.90;;;;;;5025333;28;20578;-73
2021/12/13 06:42:37;;;;;;;30.83;14.88;;;-0.60;99.90;;;;;;5028403;28;20048;-73
2021/12/13 06:45:42;;;;;;;20.45;12.93;;;-0.80;99.90;;;;;;5025691;28;20048;-72
2021/12/13 06:48:49;;;;;;;18.13;11.15;;;-0.80;99.90;;;;;;5026992;28;20052;-72
2021/12/13 06:52:12;;;;;;;20.60;12.23;;;-0.90;99.90;;;;;;5029748;28;20049;-72
2021/12/13 06:55:19;;;;;;;39.05;15.15;;;-1.00;99.90;;;;;;5029551;28;20066;-73
2021/12/13 06:58:27;;;;;;;25.13;12.98;;;-0.90;99.90;;;;;;5029047;28;20053;-72
2021/12/13 07:01:35;;;;;;;40.25;12.90;;;-0.80;99.90;;;;;;5025889;28;20040;-73
2021/12/13 07:04:56;;;;;;;15.73;10.05;;;-0.70;99.90;;;;;;5027839;28;20056;-72
2021/12/13 07:08:17;;;;;;;17.77;10.65;;;-0.60;99.90;;;;;;5027345;28;20049;-73
2021/12/13 07:11:21;;;;;;;18.80;10.95;;;-0.40;99.90;;;;;;5028259;28;20060;-73
2021/12/13 07:14:38;;;;;;;14.65;9.43;;;1.60;99.90;;;;;;5034600;28;20487;-73
2021/12/13 07:17:42;;;;;;;16.35;10.32;;;4.30;99.90;;;;;;5029731;28;20383;-73
2021/12/13 07:21:02;;;;;;;14.40;9.73;;;6.70;99.90;;;;;;5033778;28;20041;-71
2021/12/13 07:24:13;;;;;;;18.88;11.30;;;9.00;99.90;;;;;;5033009;28;20060;-71
2021/12/13 07:27:22;;;;;;;14.82;9.35;;;10.80;99.90;;;;;;5033005;28;20044;-71
2021/12/13 07:30:30;;;;;;;11.98;8.25;;;12.10;99.90;;;;;;5028527;28;20495;-73
2021/12/13 07:33:42;;;;;;;14.05;9.43;;;13.60;97.60;;;;;;5029252;28;20706;-73
2021/12/13 07:36:55;;;;;;;13.07;9.68;;;14.00;94.00;;;;;;5031288;28;20072;-73
2021/12/13 07:40:17;;;;;;;13.15;9.38;;;13.80;93.40;;;;;;5031082;28;20040;-72
2021/12/13 07:43:27;;;;;;;13.18;9.60;;;14.70;93.70;;;;;;5029907;28;20068;-71
2021/12/13 07:46:32;;;;;;;15.02;10.25;;;15.20;92.50;;;;;;5027774;28;20036;-71
2021/12/13 07:49:43;;;;;;;14.98;9.77;;;16.20;91.30;;;;;;5029659;28;20044;-71
2021/12/13 07:52:55;;;;;;;12.70;9.75;;;17.00;89.70;;;;;;5030370;28;20048;-71
2021/12/13 07:55:59;;;;;;;11.48;9.48;;;18.10;83.80;;;;;;5029247;28;21748;-71
2021/12/13 07:59:09;;;;;;;12.88;9.77;;;18.80;81.70;;;;;;5027905;28;20057;-72
2021/12/13 08:02:31;;;;;;;14.50;9.73;;;19.50;78.90;;;;;;5031673;28;20383;-72
2021/12/13 08:05:52;;;;;;;13.88;8.73;;;20.10;76.00;;;;;;5030464;28;20052;-71
2021/12/13 08:09:00;;;;;;;11.47;9.10;;;20.40;73.40;;;;;;5031073;28;20053;-71
2021/12/13 08:12:38;;;;;;;10.27;8.90;;;19.70;74.10;;;;;;5029584;28;20271;-72
2021/12/13 08:15:51;;;;;;;9.98;8.18;;;20.70;72.60;;;;;;5029851;28;20051;-72
2021/12/13 08:19:06;;;;;;;11.18;8.65;;;21.70;70.60;;;;;;5026707;28;20052;-72
2021/12/13 08:22:17;;;;;;;12.18;8.85;;;22.70;68.70;;;;;;5030493;28;20048;-71
2021/12/13 08:25:33;;;;;;;9.65;7.55;;;22.90;67.60;;;;;;5031582;28;20040;-72
2021/12/13 08:28:41;;;;;;;9.88;7.57;;;22.80;66.50;;;;;;5029687;28;20048;-72
2021/12/13 08:31:51;;;;;;;12.18;8.40;;;23.20;66.00;;;;;;5029334;28;20048;-72
2021/12/13 08:34:58;;;;;;;12.55;8.60;;;24.50;64.60;;;;;;5031608;28;20056;-71
2021/12/13 08:38:02;;;;;;;10.20;7.22;;;25.10;63.00;;;;;;5029422;28;21286;-72
2021/12/13 08:41:15;;;;;;;8.05;6.30;;;25.40;61.60;;;;;;5032483;28;20036;-71
2021/12/13 08:44:35;;;;;;;7.68;5.47;;;25.60;58.30;;;;;;5031331;28;20412;-71
2021/12/13 08:47:47;;;;;;;7.18;6.40;;;26.70;56.70;;;;;;5030110;28;20048;-72
2021/12/13 08:50:56;;;;;;;7.93;6.30;;;27.60;56.30;;;;;;5031145;28;20052;-71
2021/12/13 08:54:08;;;;;;;10.93;6.25;;;27.40;55.30;;;;;;5028323;28;20064;-71
2021/12/13 08:57:26;;;;;;;6.05;5.18;;;27.60;54.10;;;;;;5030700;28;20048;-71
2021/12/13 09:00:41;;;;;;;11.05;6.72;;;27.40;51.00;;;;;;5026689;28;20049;-71
2021/12/13 09:03:49;;;;;;;12.88;7.70;;;25.50;52.90;;;;;;5029330;28;20068;-70
2021/12/13 09:07:01;;;;;;;10.00;8.73;;;20.30;58.60;;;;;;5030421;28;20045;-70
2021/12/13 09:10:06;;;;;;;12.38;10.95;;;19.60;62.80;;;;;;5028561;28;20396;-71
2021/12/13 09:13:14;;;;;;;16.83;12.68;;;16.60;65.00;;;;;;5026138;28;20048;-70
2021/12/13 09:16:25;;;;;;;16.63;12.05;;;12.50;73.90;;;;;;5032281;28;20032;-70
2021/12/13 09:19:31;;;;;;;;;;;12.70;77.10;;;;;;5031084;28;20044;-70
2021/12/13 09:22:47;;;;;;;28.42;20.63;;;11.50;80.10;;;;;;5026882;28;20324;-70
2021/12/13 09:26:09;;;;;;;31.88;23.25;;;10.50;82.50;;;;;;5030140;28;20036;-70
2021/12/13 09:29:17;;;;;;;28.92;20.95;;;10.90;82.70;;;;;;5029849;28;20044;-70
2021/12/13 09:32:24;;;;;;;25.52;19.00;;;12.20;81.50;;;;;;5027895;28;20091;-70
2021/12/13 09:35:28;;;;;;;23.80;17.25;;;13.30;79.30;;;;;;5025344;28;20495;-70
2021/12/13 09:38:40;;;;;;;21.88;16.05;;;14.30;76.90;;;;;;5023686;28;20400;-72
2021/12/13 09:41:52;;;;;;;21.88;16.42;;;14.20;76.90;;;;;;5030051;28;20044;-70
2021/12/13 09:45:02;;;;;;;17.63;12.85;;;14.90;75.90;;;;;;5023011;28;20041;-69
2021/12/13 09:48:24;;;;;;;15.52;11.55;;;16.60;74.00;;;;;;5023897;28;20056;-69
2021/12/13 09:51:35;;;;;;;15.48;10.75;;;18.50;70.40;;;;;;5029337;28;20045;-70
2021/12/13 09:54:44;;;;;;;12.40;10.45;;;19.70;68.30;;;;;;5026763;28;20040;-70
2021/12/13 09:58:02;;;;;;;11.88;9.35;;;20.70;65.20;;;;;;5028110;28;20045;-71
2021/12/13 10:01:17;;;;;;;13.27;9.70;;;22.70;63.00;;;;;;5030512;28;20049;-70
2021/12/13 10:04:31;;;;;;;11.05;9.43;;;24.70;61.70;;;;;;5029297;28;20036;-70
2021/12/13 10:07:39;;;;;;;12.63;9.60;;;25.20;59.90;;;;;;5028370;28;20060;-69
2021/12/13 10:11:06;;;;;;;13.52;10.30;;;25.30;59.80;;;;;;5028973;28;20044;-70
2021/12/13 10:14:13;;;;;;;14.15;11.27;;;25.90;59.00;;;;;;5030016;28;20052;-69
2021/12/13 10:17:20;;;;;;;12.27;10.57;;;26.30;58.40;;;;;;5028590;28;20041;-70
2021/12/13 10:20:31;;;;;;;13.50;10.52;;;26.30;58.90;;;;;;5027770;28;20068;-70
2021/12/13 10:23:41;;;;;;;14.63;11.27;;;27.50;57.20;;;;;;5024818;28;20048;-70
2021/12/13 10:26:46;;;;;;;18.30;12.82;;;27.80;56.50;;;;;;5028660;28;20044;-70
2021/12/13 10:29:55;;;;;;;17.80;14.15;;;26.30;56.20;;;;;;5026008;28;20045;-70
2021/12/13 10:33:01;;;;;;;15.80;13.18;;;27.10;57.00;;;;;;5029004;28;20040;-69
2021/12/13 10:36:08;;;;;;;18.58;14.23;;;28.60;56.60;;;;;;5029881;28;20049;-70
2021/12/13 10:39:35;;;;;;;20.88;15.32;;;28.90;55.30;;;;;;5027421;28;20044;-70
2021/12/13 10:42:47;;;;;;;19.77;13.90;;;29.30;55.20;;;;;;5028676;28;20656;-70
2021/12/13 10:46:18;;;;;;;18.05;13.35;;;28.60;54.10;;;;;;5024526;28;20044;-70
2021/12/13 10:49:25;;;;;;;16.90;12.93;;;29.40;54.90;;;;;;5028315;28;20056;-71
2021/12/13 10:52:37;;;;;;;14.73;11.82;;;31.30;54.70;;;;;;5028345;28;20045;-70
2021/12/13 10:55:46;;;;;;;18.48;13.55;;;31.80;54.10;;;;;;5024904;28;20045;-70
2021/12/13 10:58:52;;;;;;;14.73;12.00;;;32.30;53.10;;;;;;5025761;28;20052;-71
2021/12/13 11:02:00;;;;;;;16.35;12.23;;;32.30;53.50;;;;;;5026873;28;20048;-71
2021/12/13 11:05:17;;;;;;;15.60;12.07;;;32.00;54.30;;;;;;5028746;28;21477;-70
2021/12/13 11:08:24;;;;;;;13.38;10.65;;;32.70;53.10;;;;;;5024288;28;20045;-70
2021/12/13 11:11:41;;;;;;;11.55;9.80;;;33.10;53.10;;;;;;5023805;28;20101;-71
2021/12/13 11:14:47;;;;;;;9.73;8.00;;;33.30;51.80;;;;;;5026790;28;20602;-70
2021/12/13 11:17:52;;;;;;;11.35;8.07;;;33.60;50.90;;;;;;5026128;28;20045;-71
2021/12/13 11:21:22;;;;;;;10.27;7.90;;;33.70;50.50;;;;;;5028157;28;20052;-71
2021/12/13 11:24:33;;;;;;;10.82;7.70;;;33.90;50.40;;;;;;5028060;28;20041;-71
2021/12/13 11:27:37;;;;;;;9.60;7.97;;;33.80;50.20;;;;;;5025744;28;20526;-70
2021/12/13 11:30:46;;;;;;;8.98;7.70;;;34.00;49.90;;;;;;5029233;28;20048;-71
2021/12/13 11:34:03;;;;;;;9.02;6.47;;;34.20;50.00;;;;;;5026976;28;20072;-71
2021/12/13 11:37:19;;;;;;;9.30;5.30;;;34.40;49.90;;;;;;5029541;28;20040;-70
2021/12/13 11:40:57;;;;;;;6.10;4.85;;;34.00;49.00;;;;;;5022835;28;20040;-70
2021/12/13 11:44:29;;;;;;;7.35;4.78;;;34.10;49.10;;;;;;5027017;28;20044;-70
2021/12/13 11:48:09;;;;;;;8.73;6.00;;;34.40;48.80;;;;;;5028195;28;20049;-70
2021/12/13 11:51:55;;;;;;;7.32;5.75;;;34.00;49.00;;;;;;5026088;28;20064;-70
2021/12/13 11:55:21;;;;;;;3.40;2.72;;;34.20;48.90;;;;;;5026146;28;20780;-71
2021/12/13 11:58:59;;;;;;;4.72;3.30;;;34.50;48.20;;;;;;5031296;28;20064;-70
2021/12/13 12:02:31;;;;;;;7.80;5.35;;;34.00;48.50;;;;;;5031973;28;20677;-70
2021/12/13 12:06:22;;;;;;;7.15;4.75;;;33.60;47.80;;;;;;5032290;28;20044;-71
2021/12/13 12:10:14;;;;;;;5.38;3.72;;;34.00;47.60;;;;;;5031373;28;20054;-71
2021/12/13 12:13:39;;;;;;;4.55;2.60;;;33.70;48.50;;;;;;5027887;28;20064;-71
2021/12/13 12:16:46;;;;;;;6.05;2.85;;;33.30;47.80;;;;;;5027570;28;20045;-71
2021/12/13 12:19:51;;;;;;;4.53;3.20;;;33.40;47.90;;;;;;5026311;28;20060;-71
2021/12/13 12:23:10;;;;;;;7.20;3.17;;;33.70;47.40;;;;;;5028010;28;20040;-70
2021/12/13 12:26:16;;;;;;;4.40;3.40;;;33.40;47.30;;;;;;5030813;28;20051;-71
2021/12/13 12:29:26;;;;;;;6.40;4.45;;;33.10;48.50;;;;;;5030642;28;20036;-70
2021/12/13 12:32:33;;;;;;;;;;;33.20;48.30;;;;;;5030577;28;20044;-71
2021/12/13 12:35:47;;;;;;;3.80;2.50;;;32.50;48.30;;;;;;5029772;28;19905;-72
2021/12/13 12:39:06;;;;;;;4.18;2.30;;;32.40;49.00;;;;;;5028941;28;20052;-71
2021/12/13 12:42:27;;;;;;;4.78;2.22;;;31.40;49.50;;;;;;5029451;28;20048;-72
2021/12/13 12:45:45;;;;;;;7.70;2.38;;;29.80;50.40;;;;;;5031330;28;20068;-71
2021/12/13 12:48:53;;;;;;;5.55;2.50;;;28.00;52.50;;;;;;5029098;28;20040;-71
2021/12/13 12:52:05;;;;;;;4.18;2.45;;;26.30;53.30;;;;;;5031353;28;20037;-71
2021/12/13 12:55:14;;;;;;;;;;;25.70;54.00;;;;;;5024277;28;20040;-71
2021/12/13 12:58:37;;;;;;;4.53;2.90;;;24.60;57.10;;;;;;5030640;28;19909;-71
2021/12/13 13:01:49;;;;;;;3.10;2.60;;;23.70;56.80;;;;;;5030373;28;20045;-71
2021/12/13 13:04:55;;;;;;;4.38;2.58;;;22.40;59.80;;;;;;5029590;28;20044;-71
2021/12/13 13:07:59;;;;;;;3.22;2.45;;;21.20;61.00;;;;;;5030203;28;20048;-71
2021/12/13 13:14:28;;;;;;;3.85;2.70;;;23.80;58.50;;;;;;5028501;28;20041;-71
2021/12/13 13:17:36;;;;;;;3.97;2.60;;;26.10;55.80;;;;;;5030687;28;20048;-71
2021/12/13 13:20:51;;;;;;;3.67;2.53;;;27.10;54.10;;;;;;5027707;28;20040;-71
2021/12/13 13:24:00;;;;;;;3.75;2.20;;;27.50;54.00;;;;;;5030216;28;20048;-71
2021/12/13 13:27:05;;;;;;;3.33;2.55;;;27.10;54.30;;;;;;5029851;28;20049;-71
2021/12/13 13:30:23;;;;;;;3.58;2.60;;;25.70;55.60;;;;;;5029623;28;20048;-72
2021/12/13 13:33:40;;;;;;;3.88;2.80;;;25.30;57.40;;;;;;5030437;28;20396;-71
2021/12/13 13:36:48;;;;;;;5.07;2.80;;;26.00;56.80;;;;;;5028505;28;20045;-71
2021/12/13 13:40:00;;;;;;;4.30;2.83;;;26.50;56.00;;;;;;5028892;28;20068;-71
2021/12/13 13:43:08;;;;;;;4.97;3.40;;;27.20;55.20;;;;;;5024842;28;20064;-71
2021/12/13 13:46:12;;;;;;;4.90;3.58;;;27.60;54.00;;;;;;5025161;28;20064;-71
2021/12/13 13:49:20;;;;;;;5.90;3.78;;;27.40;55.20;;;;;;5028752;28;20060;-72
2021/12/13 13:52:27;;;;;;;4.30;3.08;;;27.90;55.20;;;;;;5030031;28;20059;-71
2021/12/13 13:55:40;;;;;;;4.32;3.05;;;27.40;54.90;;;;;;5024774;28;20048;-71
2021/12/13 13:58:54;;;;;;;5.97;2.40;;;27.10;55.80;;;;;;5029089;28;20064;-72
2021/12/13 14:02:01;;;;;;;3.60;2.65;;;26.90;56.40;;;;;;5027684;28;20488;-71
2021/12/13 14:05:10;;;;;;;6.90;5.82;;;26.80;56.10;;;;;;5032114;28;20044;-71
2021/12/13 14:08:33;;;;;;;5.30;3.20;;;26.80;56.30;;;;;;5026641;28;20048;-71
2021/12/13 14:11:45;;;;;;;5.43;2.88;;;26.30;55.90;;;;;;5025825;28;20048;-71
2021/12/13 14:14:54;;;;;;;7.65;4.65;;;26.00;56.30;;;;;;5031815;28;20036;-71
2021/12/13 14:18:15;;;;;;;5.45;3.00;;;25.70;56.90;;;;;;5027526;28;20052;-71
2021/12/13 14:21:24;;;;;;;8.73;5.70;;;25.60;56.80;;;;;;5020174;28;20714;-71
2021/12/13 14:24:43;;;;;;;11.07;6.80;;;25.60;57.20;;;;;;5029452;28;20048;-71
2021/12/13 14:27:48;;;;;;;9.00;5.30;;;25.10;58.10;;;;;;5027176;28;20036;-71
2021/12/13 14:30:53;;;;;;;9.60;7.85;;;24.90;58.20;;;;;;5028437;28;20068;-72
2021/12/13 14:34:06;;;;;;;4.97;3.67;;;24.80;59.30;;;;;;5024970;28;20048;-71
2021/12/13 14:37:13;;;;;;;4.05;3.10;;;24.40;57.90;;;;;;5028760;28;20050;-71
2021/12/13 14:40:18;;;;;;;5.53;3.00;;;23.90;59.00;;;;;;5023638;28;20053;-71
2021/12/13 14:43:32;;;;;;;6.07;3.25;;;23.70;59.50;;;;;;5023039;28;20045;-71
2021/12/13 14:46:49;;;;;;;8.57;3.50;;;23.30;60.20;;;;;;5027638;28;20115;-71
2021/12/13 14:49:58;;;;;;;4.60;3.70;;;23.00;61.20;;;;;;5026676;28;20044;-71
2021/12/13 14:53:09;;;;;;;6.70;4.10;;;22.40;61.40;;;;;;5026327;28;20065;-71
2021/12/13 14:56:20;;;;;;;6.97;4.72;;;21.70;63.00;;;;;;5027320;28;20396;-71
2021/12/13 14:59:24;;;;;;;10.23;5.55;;;21.30;63.70;;;;;;5026764;28;20396;-71
2021/12/13 15:02:42;;;;;;;8.45;5.03;;;20.90;65.20;;;;;;5025357;28;20056;-71
2021/12/13 15:05:53;;;;;;;6.03;4.10;;;20.40;65.60;;;;;;5028830;28;20040;-71
2021/12/13 15:09:05;;;;;;;6.93;4.97;;;19.90;66.80;;;;;;5028761;28;20048;-70
2021/12/13 15:12:18;;;;;;;28.98;23.13;;;19.60;67.80;;;;;;5028736;28;20372;-70
2021/12/13 15:15:36;;;;;;;14.90;12.73;;;19.20;68.60;;;;;;5029278;28;20044;-71
2021/12/13 15:18:52;;;;;;;11.73;7.18;;;18.60;70.00;;;;;;5027780;28;20531;-70
2021/12/13 15:21:59;;;;;;;11.32;7.53;;;18.10;70.80;;;;;;5027093;28;20040;-71
2021/12/13 15:25:06;;;;;;;15.98;12.63;;;17.50;72.10;;;;;;5028078;28;20048;-70
2021/12/13 15:28:22;;;;;;;12.40;8.00;;;16.80;73.40;;;;;;5025468;28;20045;-70
2021/12/13 15:31:41;;;;;;;11.95;8.60;;;16.10;76.20;;;;;;5041461;28;20044;-70
2021/12/13 15:34:56;;;;;;;10.60;6.03;;;15.10;79.50;;;;;;5029246;28;20376;-70
2021/12/13 15:38:05;;;;;;;13.40;7.97;;;14.10;82.50;;;;;;5032011;28;20388;-69
2021/12/13 15:41:16;;;;;;;14.70;8.18;;;13.30;85.30;;;;;;5033605;28;20056;-69
2021/12/13 15:44:22;;;;;;;16.17;9.35;;;12.50;86.30;;;;;;5030781;28;20381;-72
2021/12/13 15:50:54;;;;;;;53.42;28.85;;;11.40;90.80;;;;;;5030732;28;20040;-71
2021/12/13 15:54:06;;;;;;;44.35;28.67;;;11.00;92.30;;;;;;5031206;28;20041;-72
2021/12/13 15:57:26;;;;;;;30.55;20.13;;;10.60;93.10;;;;;;5025399;28;20045;-72
2021/12/13 16:00:33;;;;;;;19.40;11.32;;;10.30;94.30;;;;;;5031414;28;20048;-71
2021/12/13 16:03:40;;;;;;;16.48;9.85;;;10.10;95.80;;;;;;5029043;28;20041;-72
2021/12/13 16:06:50;;;;;;;18.42;13.20;;;9.90;97.20;;;;;;5030906;28;20373;-72
2021/12/13 16:10:07;;;;;;;31.40;22.08;;;9.70;98.80;;;;;;5031883;28;20384;-72
2021/12/13 16:13:12;;;;;;;25.80;17.40;;;9.50;99.90;;;;;;5028033;28;20763;-72
2021/12/13 16:16:23;;;;;;;20.52;12.43;;;9.30;99.90;;;;;;5031672;28;20044;-72
2021/12/13 16:19:48;;;;;;;15.75;10.45;;;9.20;99.90;;;;;;5031541;28;20045;-72
2021/12/13 16:23:23;;;;;;;18.77;12.68;;;9.10;99.90;;;;;;5030313;28;20036;-72
2021/12/13 16:26:40;;;;;;;14.90;9.82;;;9.00;99.90;;;;;;5028052;28;20048;-71
2021/12/13 16:29:44;;;;;;;16.30;8.73;;;8.90;99.90;;;;;;5030825;28;20048;-71
2021/12/13 16:32:50;;;;;;;12.48;7.47;;;8.80;99.90;;;;;;5029985;28;20048;-72
2021/12/13 16:35:58;;;;;;;12.95;7.75;;;8.70;99.90;;;;;;5032859;28;20044;-72
2021/12/13 16:39:17;;;;;;;13.05;8.48;;;8.60;99.90;;;;;;5032082;28;20060;-72
2021/12/13 16:42:21;;;;;;;16.92;8.88;;;8.60;99.90;;;;;;5027909;28;20049;-72
2021/12/13 16:45:26;;;;;;;16.50;8.25;;;8.60;99.90;;;;;;5026292;28;20048;-71